Terminal Aerodrome Forecast
Issued by NWS Wilmington, OH

Current Version | Previous Version | Graphics & Text | Print | Product List | Glossary On
Versions: 1 2 3 4 5 6 7 8 9 10 11 12 13
410
FTUS41 KILN 211120
TAFDAY
TAF
KDAY 211120Z 2112/2212 17005KT P6SM SCT130 BKN250
     FM211400 19010KT P6SM SCT130 BKN250
     FM220000 16006KT P6SM SCT120 BKN250=

USA.gov is the U.S. government's official web portal to all federal, state and local government web resources and services.